createdAt,value
2023-02-23T00:00:44.792Z,22.63
2023-02-23T00:03:11.484Z,22.77
2023-02-23T00:05:37.911Z,23.48
2023-02-23T00:08:04.513Z,25.10
2023-02-23T00:10:30.921Z,26.73
2023-02-23T00:13:00.946Z,25.03
2023-02-23T00:15:28.344Z,23.67
2023-02-23T00:17:55.058Z,24.42
2023-02-23T00:20:21.947Z,23.50
2023-02-23T00:22:48.290Z,23.83
2023-02-23T00:25:14.739Z,24.60
2023-02-23T00:27:41.187Z,23.48
2023-02-23T00:30:08.392Z,22.90
2023-02-23T00:32:35.841Z,22.48
2023-02-23T00:35:02.299Z,22.40
2023-02-23T00:37:28.814Z,24.17
2023-02-23T00:39:56.448Z,23.98
2023-02-23T00:42:24.060Z,24.27
2023-02-23T00:44:50.820Z,23.70
2023-02-23T00:47:17.248Z,23.63
2023-02-23T00:49:43.753Z,23.97
2023-02-23T00:52:10.513Z,24.38
2023-02-23T00:54:36.914Z,23.42
2023-02-23T00:57:03.329Z,22.67
2023-02-23T00:59:29.689Z,24.77
2023-02-23T01:01:56.084Z,23.77
2023-02-23T01:04:22.439Z,23.50
2023-02-23T01:06:49.187Z,22.67
2023-02-23T01:09:17.119Z,22.90
2023-02-23T01:11:43.447Z,23.98
2023-02-23T01:14:10.851Z,22.67
2023-02-23T01:16:38.177Z,24.65
2023-02-23T01:19:05.676Z,23.75
2023-02-23T01:21:35.223Z,23.48
2023-02-23T01:24:02.058Z,24.63
2023-02-23T01:26:31.265Z,22.73
2023-02-23T01:29:00.041Z,23.25
2023-02-23T01:31:29.117Z,24.05
2023-02-23T01:34:00.949Z,23.52
2023-02-23T01:36:28.706Z,24.27
2023-02-23T01:38:56.156Z,20.80
2023-02-23T01:41:24.342Z,23.42
2023-02-23T01:44:27.643Z,22.02
2023-02-23T01:46:53.963Z,23.10
2023-02-23T01:49:24.800Z,23.15
2023-02-23T01:51:58.604Z,23.37
2023-02-23T01:54:30.325Z,24.38
2023-02-23T01:57:00.080Z,24.75
2023-02-23T01:59:31.835Z,24.23
2023-02-23T02:01:58.153Z,24.10
2023-02-23T02:04:24.490Z,23.70
2023-02-23T02:06:53.448Z,24.30
2023-02-23T02:09:23.752Z,23.98
2023-02-23T02:11:50.047Z,24.30
2023-02-23T02:14:27.394Z,23.67
2023-02-23T02:17:02.389Z,23.00
2023-02-23T02:19:37.694Z,23.10
2023-02-23T02:22:28.446Z,23.92
2023-02-23T02:25:20.528Z,23.30
2023-02-23T02:28:11.299Z,21.58
2023-02-23T02:30:52.806Z,22.53
2023-02-23T02:33:25.084Z,22.90
2023-02-23T02:36:29.987Z,24.42
2023-02-23T02:39:26.886Z,22.50
2023-02-23T02:42:08.833Z,24.73
2023-02-23T02:44:50.758Z,24.63
2023-02-23T02:47:26.734Z,23.75
2023-02-23T02:50:09.199Z,25.52
2023-02-23T02:52:42.996Z,24.48
2023-02-23T02:55:32.051Z,23.02
2023-02-23T02:57:59.420Z,21.90
2023-02-23T03:00:34.852Z,23.88
2023-02-23T03:03:01.209Z,24.02
2023-02-23T03:05:44.997Z,23.40
2023-02-23T03:08:28.664Z,23.80
2023-02-23T03:11:06.740Z,22.83
2023-02-23T03:14:16.594Z,21.00
2023-02-23T03:16:45.625Z,22.48
2023-02-23T03:19:22.564Z,22.55
2023-02-23T03:22:00.430Z,22.63
2023-02-23T03:24:29.795Z,22.80
2023-02-23T03:27:04.546Z,23.65
2023-02-23T03:29:49.511Z,23.27
2023-02-23T03:32:26.611Z,22.27
2023-02-23T03:35:06.451Z,21.98
2023-02-23T03:37:49.707Z,24.03
2023-02-23T03:40:21.821Z,21.58
2023-02-23T03:42:51.801Z,22.25
2023-02-23T03:45:21.133Z,23.13
2023-02-23T03:47:48.945Z,23.73
2023-02-23T03:50:29.086Z,22.63
2023-02-23T03:53:00.008Z,21.98
2023-02-23T03:55:32.277Z,23.33
2023-02-23T03:58:00.466Z,21.92
2023-02-23T04:00:42.831Z,21.92
2023-02-23T04:03:12.450Z,21.23
2023-02-23T04:05:41.561Z,21.50
2023-02-23T04:08:11.886Z,23.73
2023-02-23T04:10:50.016Z,22.88
2023-02-23T04:13:24.758Z,22.00
2023-02-23T04:15:53.193Z,23.90
2023-02-23T04:18:28.514Z,22.83
2023-02-23T04:20:56.830Z,22.80
2023-02-23T04:23:24.042Z,23.20
2023-02-23T04:25:51.891Z,22.30
2023-02-23T04:28:19.126Z,21.77
2023-02-23T04:30:45.909Z,23.10
2023-02-23T04:33:12.384Z,24.40
2023-02-23T04:35:39.991Z,21.67
2023-02-23T04:38:06.659Z,22.45
2023-02-23T04:40:33.146Z,23.03
2023-02-23T04:43:02.566Z,22.75
2023-02-23T04:45:29.059Z,22.15
2023-02-23T04:47:55.342Z,23.00
2023-02-23T04:50:21.975Z,22.55
2023-02-23T04:52:48.574Z,22.00
2023-02-23T04:55:20.796Z,22.15
2023-02-23T04:57:47.433Z,22.25
2023-02-23T05:00:14.944Z,22.15
2023-02-23T05:02:41.428Z,23.63
2023-02-23T05:05:09.006Z,22.47
2023-02-23T05:07:36.638Z,22.10
2023-02-23T05:10:04.094Z,22.98
2023-02-23T05:12:30.421Z,21.63
2023-02-23T05:14:56.755Z,22.90
2023-02-23T05:17:23.267Z,22.03
2023-02-23T05:19:49.544Z,22.55
2023-02-23T05:22:15.914Z,23.45
2023-02-23T05:24:42.655Z,21.67
2023-02-23T05:27:09.821Z,22.45
2023-02-23T05:29:36.269Z,22.37
2023-02-23T05:32:02.748Z,21.20
2023-02-23T05:34:29.359Z,22.52
2023-02-23T05:36:55.772Z,23.02
2023-02-23T05:39:22.259Z,22.80
2023-02-23T05:41:48.670Z,21.90
2023-02-23T05:44:15.197Z,21.92
2023-02-23T05:46:41.507Z,21.92
2023-02-23T05:49:07.818Z,22.85
2023-02-23T05:51:34.678Z,21.77
2023-02-23T05:54:01.081Z,21.90
2023-02-23T05:56:27.450Z,21.90
2023-02-23T05:58:56.743Z,23.13
2023-02-23T06:01:24.515Z,23.63
2023-02-23T06:03:51.571Z,22.30
2023-02-23T06:06:18.706Z,21.10
2023-02-23T06:08:45.339Z,21.52
2023-02-23T06:11:11.814Z,21.65
2023-02-23T06:13:38.178Z,21.52
2023-02-23T06:16:05.039Z,21.85
2023-02-23T06:18:31.461Z,21.90
2023-02-23T06:21:01.896Z,20.33
2023-02-23T06:23:29.024Z,21.45
2023-02-23T06:25:55.457Z,21.48
2023-02-23T06:28:22.318Z,22.77
2023-02-23T06:30:52.493Z,22.63
2023-02-23T06:33:19.052Z,22.05
2023-02-23T06:35:45.417Z,21.33
2023-02-23T06:38:12.169Z,22.63
2023-02-23T06:40:40.291Z,22.00
2023-02-23T06:43:06.647Z,21.77
2023-02-23T06:45:33.311Z,23.85
2023-02-23T06:48:00.326Z,22.25
2023-02-23T06:50:27.403Z,22.23
2023-02-23T06:52:53.862Z,21.60
2023-02-23T06:55:20.162Z,21.27
2023-02-23T06:57:49.627Z,21.80
2023-02-23T07:00:16.325Z,21.08
2023-02-23T07:02:42.863Z,20.90
2023-02-23T07:05:09.715Z,20.95
2023-02-23T07:07:36.426Z,21.27
2023-02-23T07:10:03.552Z,21.60
2023-02-23T07:12:30.266Z,21.30
2023-02-23T07:14:56.692Z,20.75
2023-02-23T07:17:23.633Z,20.75
2023-02-23T07:19:49.943Z,20.77
2023-02-23T07:22:16.213Z,22.05
2023-02-23T07:24:42.613Z,20.55
2023-02-23T07:27:08.927Z,19.85
2023-02-23T07:29:35.256Z,21.58
2023-02-23T07:32:01.781Z,19.97
2023-02-23T07:34:28.194Z,21.40
2023-02-23T07:36:55.536Z,21.70
2023-02-23T07:39:21.841Z,22.05
2023-02-23T07:41:48.095Z,21.65
2023-02-23T07:44:14.377Z,20.47
2023-02-23T07:46:41.750Z,21.10
2023-02-23T07:49:08.049Z,21.35
2023-02-23T07:51:34.423Z,20.45
2023-02-23T07:54:04.772Z,21.27
2023-02-23T07:56:31.618Z,21.13
2023-02-23T07:58:58.127Z,21.27
2023-02-23T08:01:24.478Z,22.20
2023-02-23T08:03:50.828Z,19.73
2023-02-23T08:06:18.614Z,20.27
2023-02-23T08:08:45.238Z,20.13
2023-02-23T08:11:11.808Z,21.15
2023-02-23T08:13:38.446Z,20.92
2023-02-23T08:16:05.060Z,20.70
2023-02-23T08:18:32.072Z,19.48
2023-02-23T08:20:59.665Z,19.40
2023-02-23T08:23:26.863Z,18.83
2023-02-23T08:25:54.863Z,19.42
2023-02-23T08:28:21.461Z,17.85
2023-02-23T08:30:47.933Z,17.50
2023-02-23T08:33:14.305Z,17.80
2023-02-23T08:35:40.694Z,16.00
2023-02-23T08:38:07.060Z,17.30
2023-02-23T08:40:33.449Z,17.17
2023-02-23T08:42:59.731Z,16.50
2023-02-23T08:45:26.098Z,15.80
2023-02-23T08:47:54.469Z,15.15
2023-02-23T08:50:21.255Z,16.15
2023-02-23T08:52:47.646Z,15.07
2023-02-23T08:55:14.180Z,15.52
2023-02-23T08:57:40.541Z,13.57
2023-02-23T09:00:07.383Z,14.25
2023-02-23T09:02:34.038Z,12.95
2023-02-23T09:05:00.438Z,14.20
2023-02-23T09:07:26.779Z,12.82
2023-02-23T09:09:57.544Z,13.60
2023-02-23T09:12:23.914Z,12.30
2023-02-23T09:14:50.279Z,13.23
2023-02-23T09:17:18.119Z,13.23
2023-02-23T09:19:44.529Z,13.15
2023-02-23T09:22:11.093Z,14.57
2023-02-23T09:24:37.442Z,13.07
2023-02-23T09:27:04.437Z,13.93
2023-02-23T09:29:30.713Z,13.65
2023-02-23T09:31:57.019Z,13.25
2023-02-23T09:34:23.974Z,13.67
2023-02-23T09:36:50.284Z,14.23
2023-02-23T09:39:17.180Z,13.02
2023-02-23T09:42:22.569Z,12.90
2023-02-23T09:45:18.593Z,13.25
2023-02-23T09:48:05.054Z,12.87
2023-02-23T09:50:42.212Z,13.88
2023-02-23T09:53:18.639Z,13.43
2023-02-23T09:55:45.647Z,12.55
2023-02-23T09:58:25.456Z,14.13
2023-02-23T10:01:01.701Z,14.37
2023-02-23T10:03:34.672Z,12.45
2023-02-23T10:06:07.283Z,14.30
2023-02-23T10:08:58.988Z,13.75
2023-02-23T10:11:38.768Z,13.77
2023-02-23T10:14:40.098Z,13.63
2023-02-23T10:17:38.023Z,14.35
2023-02-23T10:20:32.808Z,13.65
2023-02-23T10:23:04.602Z,12.90
2023-02-23T10:25:37.169Z,13.48
2023-02-23T10:28:03.645Z,14.00
2023-02-23T10:30:33.707Z,14.02
2023-02-23T10:33:21.361Z,12.68
2023-02-23T10:35:47.946Z,13.75
2023-02-23T10:38:16.692Z,14.25
2023-02-23T10:40:46.400Z,12.67
2023-02-23T10:43:13.467Z,12.73
2023-02-23T10:45:46.714Z,13.40
2023-02-23T10:48:25.572Z,12.25
2023-02-23T10:50:57.675Z,11.57
2023-02-23T10:53:26.702Z,13.03
2023-02-23T10:56:11.338Z,10.75
2023-02-23T10:58:44.583Z,10.95
2023-02-23T11:01:11.692Z,10.20
2023-02-23T11:03:42.511Z,10.85
2023-02-23T11:06:36.966Z,10.30
2023-02-23T11:09:26.945Z,10.90
2023-02-23T11:11:57.397Z,10.75
2023-02-23T11:14:26.507Z,11.15
2023-02-23T11:16:55.204Z,11.02
2023-02-23T11:19:43.124Z,11.23
2023-02-23T11:22:19.990Z,10.98
2023-02-23T11:24:46.445Z,12.27
2023-02-23T11:27:27.079Z,11.45
2023-02-23T11:29:56.692Z,11.80
2023-02-23T11:32:34.293Z,10.80
2023-02-23T11:35:26.755Z,11.88
2023-02-23T11:37:53.675Z,12.63
2023-02-23T11:40:22.869Z,11.40
2023-02-23T11:42:57.592Z,11.82
2023-02-23T11:45:29.886Z,11.80
2023-02-23T11:47:57.930Z,11.60
2023-02-23T11:50:36.152Z,10.93
2023-02-23T11:53:17.069Z,12.18
2023-02-23T11:55:52.612Z,11.77
2023-02-23T11:58:35.430Z,11.35
2023-02-23T12:01:05.772Z,10.40
2023-02-23T12:03:33.902Z,10.77
2023-02-23T12:06:00.349Z,10.75
2023-02-23T12:08:33.161Z,11.77
2023-02-23T12:11:03.850Z,10.88
2023-02-23T12:13:45.498Z,11.68
2023-02-23T12:16:14.583Z,11.47
2023-02-23T12:19:02.639Z,11.20
2023-02-23T12:21:56.464Z,11.25
2023-02-23T12:24:39.228Z,11.07
2023-02-23T12:27:31.090Z,10.95
2023-02-23T12:30:00.192Z,11.17
2023-02-23T12:32:48.274Z,11.13
2023-02-23T12:35:23.551Z,11.60
2023-02-23T12:38:22.005Z,11.80
2023-02-23T12:40:51.014Z,12.52
2023-02-23T12:43:26.917Z,12.03
2023-02-23T12:46:02.482Z,12.90
2023-02-23T12:48:45.970Z,11.88
2023-02-23T12:51:31.300Z,11.18
2023-02-23T12:53:57.609Z,11.35
2023-02-23T12:56:33.504Z,11.67
2023-02-23T12:59:18.155Z,10.65
2023-02-23T13:01:49.254Z,10.15
2023-02-23T13:04:43.970Z,10.40
2023-02-23T13:07:24.451Z,9.07
2023-02-23T13:10:05.774Z,9.83
2023-02-23T13:12:38.085Z,9.55
2023-02-23T13:15:35.615Z,10.00
2023-02-23T13:18:32.590Z,7.60
2023-02-23T13:21:24.895Z,9.10
2023-02-23T13:24:01.212Z,9.33
2023-02-23T13:26:39.097Z,9.50
2023-02-23T13:29:20.123Z,9.35
2023-02-23T13:31:46.791Z,9.13
2023-02-23T13:34:21.355Z,8.68
2023-02-23T13:36:48.883Z,8.80
2023-02-23T13:39:40.001Z,9.05
2023-02-23T13:42:18.283Z,8.15
2023-02-23T13:44:52.828Z,7.38
2023-02-23T13:47:47.740Z,7.68
2023-02-23T13:50:28.521Z,7.50
2023-02-23T13:52:55.371Z,7.18
2023-02-23T13:55:34.686Z,7.28
2023-02-23T13:58:13.596Z,7.57
2023-02-23T14:00:39.978Z,7.47
2023-02-23T14:03:08.046Z,7.77
2023-02-23T14:05:44.784Z,8.65
2023-02-23T14:08:34.171Z,8.38
2023-02-23T14:11:01.451Z,10.45
2023-02-23T14:13:31.846Z,9.77
2023-02-23T14:16:09.140Z,10.87
2023-02-23T14:18:49.428Z,11.23
2023-02-23T14:21:15.728Z,11.52
2023-02-23T14:23:42.034Z,11.48
2023-02-23T14:26:17.713Z,11.60
2023-02-23T14:29:20.298Z,11.90
2023-02-23T14:32:12.991Z,13.25
2023-02-23T14:34:56.186Z,13.20
2023-02-23T14:37:35.606Z,13.15
2023-02-23T14:40:18.625Z,12.98
2023-02-23T14:42:56.734Z,8.57
2023-02-23T14:45:25.823Z,6.22
2023-02-23T14:47:55.236Z,6.05
2023-02-23T14:50:30.814Z,5.07
2023-02-23T14:52:58.191Z,3.53
2023-02-23T14:55:29.652Z,4.03
2023-02-23T14:57:57.064Z,5.10
2023-02-23T15:00:26.999Z,4.35
2023-02-23T15:03:02.433Z,4.40
2023-02-23T15:05:50.338Z,4.20
2023-02-23T15:08:21.297Z,4.57
2023-02-23T15:10:51.514Z,4.72
2023-02-23T15:13:28.800Z,3.92
2023-02-23T15:15:57.454Z,4.75
2023-02-23T15:18:40.418Z,3.58
2023-02-23T15:21:13.679Z,4.40
2023-02-23T15:23:40.141Z,3.80
2023-02-23T15:26:37.481Z,4.03
2023-02-23T15:29:17.259Z,3.35
2023-02-23T15:31:46.321Z,3.22
2023-02-23T15:34:12.821Z,3.60
2023-02-23T15:36:39.710Z,3.50
2023-02-23T15:39:11.585Z,3.67
2023-02-23T15:41:37.957Z,2.97
2023-02-23T15:44:20.176Z,3.08
2023-02-23T15:46:52.739Z,3.23
2023-02-23T15:49:19.334Z,3.58
2023-02-23T15:51:49.652Z,3.65
2023-02-23T15:54:34.083Z,3.00
2023-02-23T15:57:07.728Z,3.38
2023-02-23T15:59:36.752Z,3.07
2023-02-23T16:02:12.480Z,2.85
2023-02-23T16:04:40.163Z,2.65
2023-02-23T16:07:27.361Z,3.10
2023-02-23T16:10:04.021Z,2.38
2023-02-23T16:12:37.896Z,3.33
2023-02-23T16:15:17.677Z,2.53
2023-02-23T16:17:47.414Z,2.58
2023-02-23T16:20:16.434Z,2.47
2023-02-23T16:22:45.090Z,2.90
2023-02-23T16:25:17.871Z,2.73
2023-02-23T16:27:46.928Z,3.00
2023-02-23T16:30:16.280Z,3.60
2023-02-23T16:32:44.265Z,2.72
2023-02-23T16:35:18.083Z,3.28
2023-02-23T16:38:04.356Z,3.17
2023-02-23T16:40:30.789Z,3.75
2023-02-23T16:42:58.313Z,3.95
2023-02-23T16:45:25.610Z,3.17
2023-02-23T16:47:52.662Z,2.28
2023-02-23T16:50:21.738Z,2.70
2023-02-23T16:52:50.935Z,3.05
2023-02-23T16:55:18.958Z,2.35
2023-02-23T16:57:48.147Z,2.50
2023-02-23T17:00:37.475Z,2.90
2023-02-23T17:03:04.104Z,3.00
2023-02-23T17:05:30.556Z,2.40
2023-02-23T17:07:57.971Z,2.60
2023-02-23T17:10:29.920Z,2.60
2023-02-23T17:13:08.232Z,1.98
2023-02-23T17:15:36.991Z,4.00
2023-02-23T17:18:04.127Z,3.65
2023-02-23T17:20:30.781Z,3.25
2023-02-23T17:22:59.496Z,2.40
2023-02-23T17:25:26.539Z,2.65
2023-02-23T17:27:54.088Z,3.07
2023-02-23T17:30:21.168Z,1.98
2023-02-23T17:32:48.387Z,2.55
2023-02-23T17:35:15.183Z,2.15
2023-02-23T17:37:41.574Z,2.40
2023-02-23T17:40:09.757Z,2.43
2023-02-23T17:42:36.113Z,2.55
2023-02-23T17:45:06.136Z,2.38
2023-02-23T17:47:33.988Z,2.25
2023-02-23T17:50:00.895Z,2.50
2023-02-23T17:52:28.501Z,2.27
2023-02-23T17:54:55.587Z,2.45
2023-02-23T17:57:23.276Z,2.85
2023-02-23T17:59:50.200Z,2.85
2023-02-23T18:05:27.762Z,2.80
2023-02-23T18:07:58.175Z,2.25
2023-02-23T18:10:24.603Z,2.53
2023-02-23T18:12:52.375Z,2.08
2023-02-23T18:15:18.818Z,2.53
2023-02-23T18:17:45.202Z,2.40
2023-02-23T18:20:12.449Z,2.55
2023-02-23T18:22:38.901Z,2.30
2023-02-23T18:25:05.772Z,2.10
2023-02-23T18:27:32.077Z,2.17
2023-02-23T18:29:58.599Z,2.20
2023-02-23T18:32:25.249Z,2.08
2023-02-23T18:34:51.760Z,2.20
2023-02-23T18:37:18.136Z,2.15
2023-02-23T18:39:44.397Z,2.20
2023-02-23T18:42:10.708Z,2.40
2023-02-23T18:44:37.035Z,2.30
2023-02-23T18:47:03.363Z,2.25
2023-02-23T18:49:29.743Z,1.95
2023-02-23T18:51:56.102Z,2.13
2023-02-23T18:54:22.514Z,1.50
2023-02-23T18:56:48.940Z,2.00
2023-02-23T18:59:15.910Z,2.17
2023-02-23T19:01:42.617Z,2.75
2023-02-23T19:04:09.105Z,2.63
2023-02-23T19:06:35.682Z,1.60
2023-02-23T19:09:02.207Z,2.13
2023-02-23T19:11:34.086Z,2.28
2023-02-23T19:14:03.312Z,2.08
2023-02-23T19:16:31.357Z,2.35
2023-02-23T19:18:59.416Z,2.90
2023-02-23T19:21:25.989Z,2.50
2023-02-23T19:23:52.764Z,2.00
2023-02-23T19:26:20.143Z,2.20
2023-02-23T19:28:46.800Z,2.72
2023-02-23T19:31:16.258Z,2.97
2023-02-23T19:33:43.295Z,3.03
2023-02-23T19:36:12.854Z,2.42
2023-02-23T19:38:40.078Z,2.97
2023-02-23T19:41:07.772Z,3.10
2023-02-23T19:43:34.344Z,3.53
2023-02-23T19:46:04.957Z,2.85
2023-02-23T19:48:31.515Z,3.35
2023-02-23T19:50:57.867Z,3.63
2023-02-23T19:53:24.274Z,3.10
2023-02-23T19:56:16.243Z,3.27
2023-02-23T19:58:43.532Z,3.50
2023-02-23T20:01:12.615Z,3.75
2023-02-23T20:03:39.776Z,3.83
2023-02-23T20:06:07.104Z,3.10
2023-02-23T20:08:33.914Z,3.10
2023-02-23T20:11:00.295Z,3.03
2023-02-23T20:13:26.927Z,4.03
2023-02-23T20:16:01.590Z,3.67
2023-02-23T20:18:28.020Z,4.00
2023-02-23T20:20:54.578Z,3.93
2023-02-23T20:23:21.471Z,3.80
2023-02-23T20:25:48.215Z,3.83
2023-02-23T20:28:15.936Z,4.07
2023-02-23T20:30:46.599Z,4.28
2023-02-23T20:33:13.664Z,3.33
2023-02-23T20:35:40.499Z,3.60
2023-02-23T20:38:06.875Z,3.38
2023-02-23T20:40:33.664Z,3.92
2023-02-23T20:43:00.131Z,3.78
2023-02-23T20:45:26.563Z,3.23
2023-02-23T20:47:52.950Z,4.10
2023-02-23T20:50:21.765Z,2.90
2023-02-23T20:52:49.091Z,2.60
2023-02-23T20:55:15.819Z,3.63
2023-02-23T20:57:42.223Z,2.63
2023-02-23T21:00:09.558Z,2.88
2023-02-23T21:02:36.968Z,2.67
2023-02-23T21:05:04.632Z,2.90
2023-02-23T21:07:31.354Z,2.17
2023-02-23T21:09:57.689Z,3.20
2023-02-23T21:12:24.111Z,2.63
2023-02-23T21:14:50.700Z,2.30
2023-02-23T21:17:17.137Z,2.85
2023-02-23T21:19:43.477Z,2.10
2023-02-23T21:22:09.940Z,1.87
2023-02-23T21:24:38.503Z,2.58
2023-02-23T21:27:04.882Z,2.10
2023-02-23T21:29:31.293Z,2.30
2023-02-23T21:31:57.708Z,2.38
2023-02-23T21:34:24.217Z,2.60
2023-02-23T21:36:50.564Z,2.38
2023-02-23T21:39:17.207Z,2.40
2023-02-23T21:41:43.537Z,2.28
2023-02-23T21:44:11.323Z,2.40
2023-02-23T21:46:37.753Z,2.57
2023-02-23T21:49:04.260Z,2.25
2023-02-23T21:51:30.572Z,2.15
2023-02-23T21:53:56.972Z,2.63
2023-02-23T21:56:23.389Z,2.08
2023-02-23T21:58:54.710Z,2.43
2023-02-23T22:01:25.140Z,2.33
2023-02-23T22:03:51.643Z,2.53
2023-02-23T22:06:20.065Z,2.85
2023-02-23T22:08:47.592Z,2.55
2023-02-23T22:11:16.601Z,2.17
2023-02-23T22:13:51.421Z,2.13
2023-02-23T22:16:19.241Z,2.10
2023-02-23T22:18:45.986Z,2.22
2023-02-23T22:21:12.714Z,2.58
2023-02-23T22:23:40.452Z,2.00
2023-02-23T22:26:07.541Z,2.03
2023-02-23T22:28:34.409Z,1.98
2023-02-23T22:31:09.571Z,2.42
2023-02-23T22:33:37.359Z,1.95
2023-02-23T22:36:06.053Z,2.20
2023-02-23T22:38:33.734Z,1.88
2023-02-23T22:41:00.221Z,2.47
2023-02-23T22:43:28.024Z,1.88
2023-02-23T22:45:55.755Z,2.15
2023-02-23T22:48:23.178Z,1.80
2023-02-23T22:50:50.555Z,1.70
2023-02-23T22:53:17.802Z,2.05
2023-02-23T22:55:48.709Z,1.88
2023-02-23T22:58:16.054Z,1.80
2023-02-23T23:00:42.511Z,1.40
2023-02-23T23:03:08.909Z,1.95
2023-02-23T23:05:35.348Z,2.08
2023-02-23T23:08:01.784Z,1.92
2023-02-23T23:10:28.199Z,2.47
2023-02-23T23:12:54.638Z,1.30
2023-02-23T23:15:23.013Z,1.58
2023-02-23T23:17:49.925Z,1.52
2023-02-23T23:20:19.697Z,1.60
2023-02-23T23:22:46.063Z,1.80
2023-02-23T23:25:12.475Z,2.10
2023-02-23T23:27:38.919Z,1.95
2023-02-23T23:30:05.682Z,1.42
2023-02-23T23:32:32.232Z,1.95
2023-02-23T23:34:58.880Z,2.45
2023-02-23T23:37:25.581Z,1.83
2023-02-23T23:39:52.006Z,1.80
2023-02-23T23:42:18.916Z,1.88
2023-02-23T23:44:45.358Z,1.80
2023-02-23T23:47:11.757Z,1.70
2023-02-23T23:49:38.358Z,1.77
2023-02-23T23:52:05.294Z,1.73
2023-02-23T23:54:35.054Z,1.90
2023-02-23T23:57:01.623Z,2.30
2023-02-23T23:59:28.415Z,2.08
